WALL/BPN METAR and TAF weather

Enter ICAO airport designator
Station Type Date Time Source
WALL METAR 2020/12/06 01:00 UTC NOAA

WALL 060100Z 20002KT 9999 FEW020 30/27 Q1009


Station Type Date Time Source
WALL Decoded METAR 2020/12/06 01:00 UTC NOAA

Station name not available
Dec 05, 2020 - 08:00 PM EST / 2020.12.06 0100 UTC
Wind: from the SSW (200 degrees) at 2 MPH (2 KT):0
Visibility: greater than 7 mile(s):0
Sky conditions: mostly clear
Temperature: 86 F (30 C)
Heat index: 101.8 F (38.8 C):1
Dew Point: 80 F (27 C)
Relative Humidity: 84%
Pressure (altimeter): 29.80 in. Hg (1009 hPa)
ob: WALL 060100Z 20002KT 9999 FEW020 30/27 Q1009
cycle: 1

Station Type Date Time Source
WALL TAF 2020/12/05 12:00 UTC NOAA

TAF WALL 051100Z 0512/0618 17003KT 9999 FEW020
TEMPO 0515/0518 BKN015

Example: see airport list